Time;durP1;ratioP1;P1;durP2;ratioP2;P2;SDS_P1;SDS_P2;PMS_P1;PMS_P2;Temp;Humidity;BMP_temperature;BMP_pressure;BME280_temperature;BME280_humidity;BME280_pressure;Samples;Min_cycle;Max_cycle;Signal;HPM_P1;HPM_P2
2021/08/22 00:01:17;;;;;;;32.10;28.50;;;18.60;67.30;;;;;;5065105;28;20085;-66
2021/08/22 00:03:45;;;;;;;34.15;28.38;;;18.70;67.60;;;;;;5063233;28;20025;-68
2021/08/22 00:06:12;;;;;;;35.25;28.88;;;18.70;67.00;;;;;;5059960;28;20088;-72
2021/08/22 00:08:46;;;;;;;35.70;28.63;;;18.70;67.40;;;;;;5064725;28;20024;-70
2021/08/22 00:11:14;;;;;;;34.30;29.33;;;18.70;66.00;;;;;;5065985;28;20479;-68
2021/08/22 00:13:41;;;;;;;33.17;27.98;;;18.80;67.70;;;;;;5066392;28;20024;-66
2021/08/22 00:16:09;;;;;;;32.47;28.00;;;18.80;66.10;;;;;;5060547;28;20032;-70
2021/08/22 00:18:36;;;;;;;36.28;28.95;;;18.90;66.40;;;;;;5067740;28;20044;-72
2021/08/22 00:21:04;;;;;;;34.42;28.63;;;18.80;67.60;;;;;;5068765;28;20446;-66
2021/08/22 00:23:32;;;;;;;32.33;28.50;;;18.90;67.80;;;;;;5066016;28;20040;-70
2021/08/22 00:26:00;;;;;;;33.47;27.42;;;19.00;67.00;;;;;;5060979;28;20494;-65
2021/08/22 00:28:28;;;;;;;31.67;26.77;;;19.10;67.30;;;;;;5066295;28;21800;-67
2021/08/22 00:30:56;;;;;;;33.38;27.40;;;19.20;67.20;;;;;;5066689;28;20169;-70
2021/08/22 00:33:24;;;;;;;35.28;26.67;;;19.20;66.20;;;;;;5067255;28;20470;-72
2021/08/22 00:35:54;;;;;;;32.92;27.92;;;19.30;66.10;;;;;;5061309;28;20170;-70
2021/08/22 00:38:34;;;;;;;37.00;28.55;;;19.50;66.40;;;;;;5066360;28;20060;-71
2021/08/22 00:41:08;;;;;;;35.85;27.65;;;19.60;65.90;;;;;;5073027;28;20039;-71
2021/08/22 00:43:35;;;;;;;31.50;26.95;;;19.60;65.10;;;;;;5071543;28;20036;-70
2021/08/22 00:46:03;;;;;;;31.60;27.10;;;19.70;66.00;;;;;;5071355;28;20028;-74
2021/08/22 00:48:35;;;;;;;31.20;26.35;;;19.80;65.30;;;;;;5053254;28;20021;-73
2021/08/22 00:51:03;;;;;;;30.88;25.25;;;19.90;65.30;;;;;;5069764;28;20466;-71
2021/08/22 00:53:32;;;;;;;28.60;25.45;;;20.00;65.20;;;;;;5070884;28;20044;-72
2021/08/22 00:56:04;;;;;;;34.78;26.65;;;20.10;64.80;;;;;;5070912;28;20024;-72
2021/08/22 00:58:39;;;;;;;31.80;25.53;;;20.30;64.30;;;;;;5071530;28;20032;-70
2021/08/22 01:01:23;;;;;;;32.50;26.40;;;20.40;64.00;;;;;;5071938;28;20262;-74
2021/08/22 01:03:59;;;;;;;27.80;24.75;;;20.50;63.40;;;;;;5071359;28;20036;-72
2021/08/22 01:07:02;;;;;;;30.63;25.65;;;20.50;63.10;;;;;;5070235;28;20043;-70
2021/08/22 01:09:40;;;;;;;30.67;25.33;;;20.60;63.30;;;;;;5070959;28;20054;-72
2021/08/22 01:12:15;;;;;;;30.13;23.80;;;20.50;63.50;;;;;;5070665;28;20332;-71
2021/08/22 01:14:48;;;;;;;26.90;23.60;;;20.80;62.40;;;;;;5070793;28;20060;-68
2021/08/22 01:17:22;;;;;;;33.28;24.77;;;20.70;62.90;;;;;;5070939;28;20025;-75
2021/08/22 01:19:55;;;;;;;29.92;24.52;;;20.90;61.50;;;;;;5070846;28;20020;-73
2021/08/22 01:22:25;;;;;;;29.40;24.33;;;20.90;62.90;;;;;;5070351;28;20032;-72
2021/08/22 01:24:53;;;;;;;26.63;23.80;;;21.00;61.10;;;;;;5069313;28;20471;-75
2021/08/22 01:27:21;;;;;;;26.80;22.92;;;21.10;62.50;;;;;;5069252;28;20024;-74
2021/08/22 01:30:13;;;;;;;31.05;24.25;;;21.10;62.80;;;;;;5070650;28;20034;-69
2021/08/22 01:32:48;;;;;;;28.35;23.23;;;21.10;62.90;;;;;;5069845;28;20503;-73
2021/08/22 01:35:22;;;;;;;32.47;23.52;;;21.00;63.10;;;;;;5069475;28;20029;-57
2021/08/22 01:37:51;;;;;;;25.85;23.00;;;21.50;61.30;;;;;;5070395;28;20021;-60
2021/08/22 01:40:27;;;;;;;29.23;23.83;;;21.80;59.60;;;;;;5069735;28;20499;-62
2021/08/22 01:42:55;;;;;;;26.92;22.17;;;22.10;58.40;;;;;;5069780;28;20012;-56
2021/08/22 01:45:23;;;;;;;29.50;23.58;;;22.30;58.20;;;;;;5068868;28;20051;-57
2021/08/22 01:47:51;;;;;;;31.80;23.45;;;22.50;57.20;;;;;;5069944;28;20044;-65
2021/08/22 01:50:25;;;;;;;36.78;23.00;;;22.70;56.20;;;;;;5069966;28;20496;-56
2021/08/22 01:52:56;;;;;;;31.77;23.15;;;23.00;55.60;;;;;;5069997;28;20171;-60
2021/08/22 01:55:24;;;;;;;28.75;22.13;;;23.00;56.60;;;;;;5070003;28;20049;-60
2021/08/22 01:57:51;;;;;;;27.77;21.50;;;23.20;56.10;;;;;;5069387;28;20041;-60
2021/08/22 02:00:19;;;;;;;27.10;21.10;;;23.20;54.50;;;;;;5069389;28;20600;-58
2021/08/22 02:03:15;;;;;;;24.35;19.33;;;23.30;54.90;;;;;;5068080;28;20111;-59
2021/08/22 02:05:43;;;;;;;26.17;20.05;;;23.50;54.00;;;;;;5067811;28;20032;-59
2021/08/22 02:08:23;;;;;;;31.38;21.55;;;23.60;54.40;;;;;;5069020;28;20054;-58
2021/08/22 02:11:01;;;;;;;26.95;19.52;;;23.70;54.50;;;;;;5069826;28;20024;-61
2021/08/22 02:13:36;;;;;;;28.02;18.52;;;23.70;54.10;;;;;;5070072;28;20044;-60
2021/08/22 02:16:06;;;;;;;26.10;17.63;;;23.90;53.70;;;;;;5069057;28;20028;-59
2021/08/22 02:18:41;;;;;;;23.90;18.70;;;23.80;53.10;;;;;;5068839;28;20024;-60
2021/08/22 02:21:11;;;;;;;20.75;14.90;;;23.90;53.30;;;;;;5069169;28;20025;-61
2021/08/22 02:23:41;;;;;;;21.40;17.02;;;24.00;52.50;;;;;;5069091;28;20032;-60
2021/08/22 02:26:08;;;;;;;22.20;17.33;;;24.00;53.60;;;;;;5068865;28;20023;-59
2021/08/22 02:28:36;;;;;;;18.33;15.10;;;23.80;54.40;;;;;;5068385;28;20031;-58
2021/08/22 02:31:32;;;;;;;20.38;16.23;;;23.70;53.70;;;;;;5066581;28;20039;-67
2021/08/22 02:34:09;;;;;;;23.40;16.13;;;23.40;55.10;;;;;;5063149;28;20111;-70
2021/08/22 02:36:36;;;;;;;17.60;14.57;;;22.40;57.90;;;;;;5069883;28;20540;-65
2021/08/22 02:39:04;;;;;;;19.00;14.95;;;22.30;58.60;;;;;;5071970;28;20029;-69
2021/08/22 02:41:31;;;;;;;17.33;13.77;;;22.20;58.80;;;;;;5073285;28;20032;-69
2021/08/22 02:43:59;;;;;;;18.67;13.85;;;22.30;56.90;;;;;;5072527;28;20502;-69
2021/08/22 02:46:44;;;;;;;18.27;14.10;;;22.20;59.00;;;;;;5068537;28;20059;-67
2021/08/22 02:49:11;;;;;;;18.88;13.73;;;22.40;57.20;;;;;;5067585;28;20120;-68
2021/08/22 02:51:39;;;;;;;17.80;13.20;;;22.40;58.50;;;;;;5073889;28;20467;-64
2021/08/22 02:54:06;;;;;;;14.98;13.13;;;22.50;58.20;;;;;;5073297;28;20044;-64
2021/08/22 02:56:36;;;;;;;15.93;13.77;;;22.60;56.80;;;;;;5069288;28;20021;-65
2021/08/22 02:59:04;;;;;;;18.63;13.85;;;22.70;56.10;;;;;;5072896;28;20021;-68
2021/08/22 03:01:31;;;;;;;14.90;13.02;;;22.80;54.50;;;;;;5072562;28;20029;-67
2021/08/22 03:03:59;;;;;;;17.60;12.65;;;23.20;54.60;;;;;;5072211;28;20048;-64
2021/08/22 03:06:27;;;;;;;15.77;12.65;;;22.90;56.40;;;;;;5069429;28;20019;-73
2021/08/22 03:08:54;;;;;;;20.50;13.38;;;23.00;56.20;;;;;;5072684;28;20479;-64
2021/08/22 03:11:22;;;;;;;21.40;14.98;;;23.00;54.90;;;;;;5073250;28;20040;-65
2021/08/22 03:13:50;;;;;;;19.23;14.88;;;23.00;55.40;;;;;;5070358;28;20051;-73
2021/08/22 03:16:17;;;;;;;19.45;14.98;;;23.30;54.40;;;;;;5070174;28;20024;-61
2021/08/22 03:18:45;;;;;;;19.55;13.60;;;23.20;55.20;;;;;;5074099;28;20536;-62
2021/08/22 03:21:12;;;;;;;15.35;12.55;;;23.20;54.50;;;;;;5073649;28;20052;-69
2021/08/22 03:23:40;;;;;;;17.67;13.65;;;23.00;56.20;;;;;;5073959;28;20081;-60
2021/08/22 03:26:07;;;;;;;17.85;13.65;;;22.90;55.70;;;;;;5069389;28;20577;-70
2021/08/22 03:28:35;;;;;;;19.60;15.45;;;23.20;55.60;;;;;;5071938;28;20154;-62
2021/08/22 03:31:03;;;;;;;22.15;14.45;;;23.50;55.10;;;;;;5072163;28;20056;-65
2021/08/22 03:33:31;;;;;;;19.20;14.00;;;23.60;54.80;;;;;;5071196;28;20479;-68
2021/08/22 03:35:58;;;;;;;19.60;14.60;;;23.60;54.70;;;;;;5068015;28;20162;-70
2021/08/22 03:38:25;;;;;;;16.55;13.85;;;23.50;55.00;;;;;;5071636;28;20028;-68
2021/08/22 03:40:53;;;;;;;20.33;13.63;;;23.50;55.00;;;;;;5072190;28;20025;-67
2021/08/22 03:43:20;;;;;;;15.68;14.05;;;23.50;55.00;;;;;;5071974;28;20020;-68
2021/08/22 03:45:48;;;;;;;19.35;14.32;;;23.70;54.90;;;;;;5067622;28;20059;-73
2021/08/22 03:48:34;;;;;;;20.58;14.38;;;23.50;55.20;;;;;;5072129;28;20115;-64
2021/08/22 03:51:01;;;;;;;20.45;13.82;;;23.40;55.60;;;;;;5071746;28;20123;-71
2021/08/22 03:53:29;;;;;;;16.83;14.05;;;23.60;55.20;;;;;;5072649;28;20078;-65
2021/08/22 03:55:56;;;;;;;16.52;14.23;;;23.70;55.20;;;;;;5067824;28;20012;-71
2021/08/22 03:58:23;;;;;;;19.85;12.38;;;23.70;55.10;;;;;;5068945;28;20446;-66
2021/08/22 04:00:51;;;;;;;17.42;13.70;;;23.70;55.20;;;;;;5071637;28;20099;-66
2021/08/22 04:03:19;;;;;;;14.38;12.70;;;23.80;54.90;;;;;;5071168;28;20512;-65
2021/08/22 04:05:46;;;;;;;18.42;14.00;;;23.70;55.10;;;;;;5067977;28;20123;-69
2021/08/22 04:08:26;;;;;;;17.15;14.07;;;23.60;55.60;;;;;;5072977;28;20013;-70
2021/08/22 04:10:54;;;;;;;12.90;10.48;;;23.60;55.80;;;;;;5078204;28;20021;-73
2021/08/22 04:13:21;;;;;;;17.58;13.02;;;23.90;54.60;;;;;;5081484;28;20033;-67
2021/08/22 04:15:49;;;;;;;15.45;12.27;;;23.80;55.20;;;;;;5089365;28;20113;-75
2021/08/22 04:18:17;;;;;;;15.38;12.48;;;23.70;55.50;;;;;;5085694;28;20096;-71
2021/08/22 04:20:45;;;;;;;11.52;9.52;;;23.70;55.70;;;;;;5087798;28;20040;-70
2021/08/22 04:23:12;;;;;;;13.90;11.55;;;23.90;54.70;;;;;;5083742;28;20032;-66
2021/08/22 04:25:45;;;;;;;15.52;12.02;;;23.80;55.50;;;;;;5083243;28;20021;-66
2021/08/22 04:28:13;;;;;;;13.18;9.82;;;23.80;55.10;;;;;;5079721;28;20020;-60
2021/08/22 04:30:40;;;;;;;10.50;7.10;;;23.90;54.90;;;;;;5075692;28;20051;-63
2021/08/22 04:33:08;;;;;;;11.55;7.88;;;24.20;53.90;;;;;;5075999;28;20479;-61
2021/08/22 04:35:35;;;;;;;7.22;4.22;;;24.30;53.60;;;;;;5075826;28;20048;-64
2021/08/22 04:38:03;;;;;;;5.05;2.95;;;24.50;52.40;;;;;;5075019;28;20020;-60
2021/08/22 04:40:30;;;;;;;8.68;3.55;;;24.70;52.40;;;;;;5075262;28;20478;-65
2021/08/22 04:42:58;;;;;;;10.82;4.95;;;24.90;51.30;;;;;;5075686;28;20028;-66
2021/08/22 04:45:26;;;;;;;7.68;6.30;;;24.80;51.70;;;;;;5078664;28;20052;-67
2021/08/22 04:47:53;;;;;;;13.20;5.10;;;24.30;53.80;;;;;;5062873;28;20032;-65
2021/08/22 04:50:20;;;;;;;11.15;5.82;;;24.10;53.60;;;;;;5071519;28;20033;-72
2021/08/22 04:52:48;;;;;;;5.80;4.80;;;23.80;55.10;;;;;;5070988;28;20048;-63
2021/08/22 04:55:15;;;;;;;7.75;4.85;;;23.80;55.60;;;;;;5070035;28;20024;-64
2021/08/22 04:57:43;;;;;;;6.07;4.63;;;23.90;54.30;;;;;;5071669;28;20593;-66
2021/08/22 05:00:11;;;;;;;6.72;5.13;;;24.00;54.40;;;;;;5071831;28;20506;-63
2021/08/22 05:02:38;;;;;;;7.00;4.78;;;24.00;54.80;;;;;;5070121;28;20067;-65
2021/08/22 05:05:06;;;;;;;9.05;4.07;;;24.00;54.70;;;;;;5070958;28;20021;-64
2021/08/22 05:07:34;;;;;;;16.30;4.85;;;24.20;53.70;;;;;;5071175;28;20490;-69
2021/08/22 05:10:01;;;;;;;8.85;4.72;;;24.00;54.20;;;;;;5071313;28;20513;-65
2021/08/22 05:12:29;;;;;;;6.70;4.45;;;24.20;53.20;;;;;;5070867;28;20486;-64
2021/08/22 05:14:56;;;;;;;7.80;5.10;;;24.20;54.00;;;;;;5071381;28;20073;-66
2021/08/22 05:17:24;;;;;;;7.10;4.85;;;24.30;54.80;;;;;;5069566;28;20097;-64
2021/08/22 05:19:51;;;;;;;8.23;5.35;;;24.30;54.20;;;;;;5070591;28;20025;-68
2021/08/22 05:22:18;;;;;;;9.73;6.10;;;24.30;55.10;;;;;;5070930;28;20024;-64
2021/08/22 05:24:46;;;;;;;5.85;5.10;;;24.40;53.40;;;;;;5070375;28;20028;-64
2021/08/22 05:27:14;;;;;;;6.30;4.85;;;24.30;53.80;;;;;;5070769;28;20112;-66
2021/08/22 05:29:41;;;;;;;12.65;4.78;;;24.30;55.40;;;;;;5069034;28;20043;-67
2021/08/22 05:32:09;;;;;;;9.52;4.40;;;24.20;55.20;;;;;;5070437;28;20116;-71
2021/08/22 05:34:36;;;;;;;9.20;4.55;;;24.30;55.50;;;;;;5064902;28;20028;-73
2021/08/22 05:37:04;;;;;;;5.82;4.65;;;24.30;54.80;;;;;;5074185;28;20040;-69
2021/08/22 05:39:35;;;;;;;6.50;4.38;;;24.30;54.00;;;;;;5070710;28;20025;-67
2021/08/22 05:42:03;;;;;;;7.63;3.92;;;24.30;54.60;;;;;;5073166;28;20021;-64
2021/08/22 05:44:31;;;;;;;4.95;3.90;;;24.30;53.60;;;;;;5071651;28;20025;-67
2021/08/22 05:46:59;;;;;;;6.22;3.70;;;24.20;53.70;;;;;;5072555;28;20036;-67
2021/08/22 05:49:26;;;;;;;9.50;3.90;;;24.30;53.90;;;;;;5068937;28;20104;-64
2021/08/22 05:51:54;;;;;;;7.63;3.85;;;24.40;50.70;;;;;;5073370;28;20033;-73
2021/08/22 05:54:21;;;;;;;11.40;4.68;;;24.40;51.50;;;;;;5073233;28;20021;-74
2021/08/22 05:56:48;;;;;;;7.93;3.78;;;24.20;53.50;;;;;;5073426;28;20067;-69
2021/08/22 05:59:16;;;;;;;6.82;3.75;;;24.10;54.20;;;;;;5065821;28;20395;-70
2021/08/22 06:01:43;;;;;;;4.90;3.13;;;24.10;53.50;;;;;;5073647;28;20108;-71
2021/08/22 06:04:11;;;;;;;10.27;3.88;;;24.10;52.80;;;;;;5072782;28;20033;-68
2021/08/22 06:06:57;;;;;;;7.78;4.32;;;24.00;53.90;;;;;;5073892;28;20028;-67
2021/08/22 06:09:25;;;;;;;4.25;3.58;;;24.00;54.40;;;;;;5071044;28;20025;-67
2021/08/22 06:11:52;;;;;;;4.88;3.30;;;23.90;55.10;;;;;;5070493;28;20051;-72
2021/08/22 06:14:20;;;;;;;6.22;4.28;;;23.90;54.10;;;;;;5071212;28;20021;-64
2021/08/22 06:16:47;;;;;;;7.32;3.53;;;23.80;53.70;;;;;;5073257;28;20375;-67
2021/08/22 06:19:15;;;;;;;9.57;3.38;;;23.70;54.60;;;;;;5069306;28;20026;-69
2021/08/22 06:21:42;;;;;;;6.40;3.30;;;23.60;54.30;;;;;;5073163;28;20060;-67
2021/08/22 06:24:10;;;;;;;5.72;3.20;;;23.50;54.80;;;;;;5072867;28;20738;-70
2021/08/22 06:26:37;;;;;;;4.78;3.63;;;23.30;54.60;;;;;;5072406;28;20016;-66
2021/08/22 06:29:23;;;;;;;6.20;3.55;;;23.10;55.70;;;;;;5068459;28;20028;-70
2021/08/22 06:31:51;;;;;;;6.47;3.50;;;23.00;56.50;;;;;;5073819;28;20064;-67
2021/08/22 06:34:19;;;;;;;7.38;3.70;;;22.90;57.10;;;;;;5072164;28;20021;-68
2021/08/22 06:36:48;;;;;;;4.78;4.00;;;22.80;57.60;;;;;;5070949;28;20119;-67
2021/08/22 06:39:15;;;;;;;5.15;3.22;;;22.80;58.20;;;;;;5068695;28;20028;-71
2021/08/22 06:41:43;;;;;;;8.15;3.35;;;22.80;56.80;;;;;;5072990;28;20035;-66
2021/08/22 06:44:11;;;;;;;5.80;3.20;;;22.70;57.80;;;;;;5071933;28;20491;-69
2021/08/22 06:46:39;;;;;;;11.32;4.07;;;22.60;57.90;;;;;;5071817;28;20095;-67
2021/08/22 06:49:07;;;;;;;9.45;3.50;;;22.50;58.60;;;;;;5068275;28;20017;-68
2021/08/22 06:51:35;;;;;;;4.00;3.03;;;22.50;58.70;;;;;;5073552;28;20037;-66
2021/08/22 06:54:03;;;;;;;3.55;3.10;;;22.30;58.70;;;;;;5071647;28;20025;-69
2021/08/22 06:56:31;;;;;;;4.53;2.70;;;22.30;58.80;;;;;;5072339;28;20017;-68
2021/08/22 06:58:59;;;;;;;4.82;3.20;;;22.10;59.40;;;;;;5067301;28;20383;-69
2021/08/22 07:01:26;;;;;;;7.40;3.38;;;22.10;59.40;;;;;;5072658;28;20021;-69
2021/08/22 07:03:53;;;;;;;5.68;2.90;;;22.10;59.50;;;;;;5071810;28;20052;-68
2021/08/22 07:06:21;;;;;;;7.05;3.13;;;22.00;59.70;;;;;;5072905;28;20108;-67
2021/08/22 07:08:48;;;;;;;4.80;3.20;;;21.90;60.10;;;;;;5067202;28;20021;-65
2021/08/22 07:11:16;;;;;;;4.18;2.85;;;21.80;60.60;;;;;;5072742;28;20028;-70
2021/08/22 07:13:43;;;;;;;3.10;2.80;;;21.80;60.80;;;;;;5072689;28;20027;-68
2021/08/22 07:16:11;;;;;;;3.65;2.78;;;21.70;61.30;;;;;;5071160;28;20082;-70
2021/08/22 07:18:38;;;;;;;5.22;3.05;;;21.60;61.20;;;;;;5067069;28;20119;-63
2021/08/22 07:21:07;;;;;;;4.60;2.92;;;21.50;61.50;;;;;;5072484;28;20055;-63
2021/08/22 07:23:34;;;;;;;5.55;3.45;;;21.50;61.90;;;;;;5071866;28;20375;-69
2021/08/22 07:26:02;;;;;;;5.13;2.97;;;21.40;62.20;;;;;;5071551;28;20614;-70
2021/08/22 07:28:29;;;;;;;5.72;3.40;;;21.40;62.30;;;;;;5065988;28;20551;-70
2021/08/22 07:30:57;;;;;;;4.50;2.85;;;21.30;62.50;;;;;;5071783;28;20067;-66
2021/08/22 07:33:27;;;;;;;4.45;2.90;;;21.30;62.60;;;;;;5072050;28;20037;-70
2021/08/22 07:35:54;;;;;;;5.03;2.90;;;21.20;62.70;;;;;;5071344;28;20020;-67
2021/08/22 07:38:25;;;;;;;5.15;2.83;;;21.20;62.60;;;;;;5066984;28;20135;-68
2021/08/22 07:40:56;;;;;;;4.88;3.10;;;21.20;62.60;;;;;;5069037;28;20025;-64
2021/08/22 07:43:26;;;;;;;7.18;3.00;;;21.20;63.10;;;;;;5072329;28;20085;-65
2021/08/22 07:45:54;;;;;;;4.70;2.30;;;21.00;63.30;;;;;;5073244;28;20056;-67
2021/08/22 07:48:21;;;;;;;7.95;2.90;;;21.10;63.20;;;;;;5069845;28;20051;-66
2021/08/22 07:50:49;;;;;;;3.30;2.80;;;20.90;63.70;;;;;;5077719;28;20032;-73
2021/08/22 07:53:18;;;;;;;5.65;2.78;;;21.00;63.50;;;;;;5076704;28;20058;-67
2021/08/22 07:55:46;;;;;;;4.43;2.75;;;20.90;63.70;;;;;;5076102;28;20019;-71
2021/08/22 07:58:16;;;;;;;5.85;3.30;;;20.80;64.30;;;;;;5070741;28;20105;-61
2021/08/22 08:00:43;;;;;;;5.03;3.08;;;20.80;64.20;;;;;;5076223;28;20499;-63
2021/08/22 08:03:12;;;;;;;3.67;2.95;;;20.80;64.40;;;;;;5076024;28;20021;-65
2021/08/22 08:05:43;;;;;;;3.25;2.47;;;20.70;64.50;;;;;;5074573;28;20021;-65
2021/08/22 08:08:11;;;;;;;6.60;2.88;;;20.70;64.50;;;;;;5070526;28;20093;-69
2021/08/22 08:10:38;;;;;;;3.55;2.70;;;20.80;64.00;;;;;;5075602;28;20062;-68
2021/08/22 08:13:05;;;;;;;3.53;2.83;;;20.70;64.50;;;;;;5076000;28;20165;-66
2021/08/22 08:15:37;;;;;;;6.18;3.20;;;20.70;63.80;;;;;;5075479;28;20017;-68
2021/08/22 08:18:05;;;;;;;5.32;3.00;;;20.70;63.90;;;;;;5070411;28;20506;-65
2021/08/22 08:20:32;;;;;;;4.13;2.90;;;20.70;64.80;;;;;;5075158;28;20390;-64
2021/08/22 08:23:00;;;;;;;4.53;2.78;;;20.60;64.50;;;;;;5075505;28;20035;-70
2021/08/22 08:25:27;;;;;;;3.30;2.47;;;20.60;63.90;;;;;;5074390;28;20044;-69
2021/08/22 08:27:55;;;;;;;4.65;3.28;;;20.50;65.10;;;;;;5070911;28;20096;-68
2021/08/22 08:30:22;;;;;;;3.10;2.40;;;20.60;64.50;;;;;;5074614;28;20050;-67
2021/08/22 08:32:50;;;;;;;5.90;2.67;;;20.50;65.40;;;;;;5075348;28;20402;-69
2021/08/22 08:35:17;;;;;;;4.95;3.17;;;20.50;63.90;;;;;;5075222;28;20024;-66
2021/08/22 08:37:45;;;;;;;3.83;2.53;;;20.50;64.50;;;;;;5072804;28;20032;-63
2021/08/22 08:40:22;;;;;;;3.75;2.67;;;20.50;64.40;;;;;;5071891;28;20036;-66
2021/08/22 08:42:55;;;;;;;3.83;2.30;;;20.50;64.90;;;;;;5071094;28;20013;-69
2021/08/22 08:45:50;;;;;;;4.07;2.55;;;20.50;64.80;;;;;;5071176;28;20051;-71
2021/08/22 08:48:59;;;;;;;4.80;2.55;;;20.40;65.80;;;;;;5069372;28;20406;-70
2021/08/22 08:51:32;;;;;;;4.72;2.80;;;20.30;65.10;;;;;;5053409;28;20033;-68
2021/08/22 08:54:09;;;;;;;5.32;3.63;;;20.30;64.30;;;;;;5072897;28;20067;-68
2021/08/22 08:56:47;;;;;;;21.05;12.18;;;20.30;65.40;;;;;;5074399;28;20099;-68
2021/08/22 08:59:34;;;;;;;36.97;18.95;;;20.30;65.70;;;;;;5066302;28;20012;-72
2021/08/22 09:02:05;;;;;;;41.92;22.33;;;20.30;65.60;;;;;;5072285;28;20037;-64
2021/08/22 09:04:52;;;;;;;46.78;25.63;;;20.30;65.90;;;;;;5073661;28;20032;-69
2021/08/22 09:07:48;;;;;;;51.78;29.30;;;20.30;64.90;;;;;;5068949;28;20517;-64
2021/08/22 09:10:33;;;;;;;52.30;28.58;;;20.30;64.40;;;;;;5072224;28;20601;-61
2021/08/22 09:13:34;;;;;;;50.75;28.73;;;20.30;64.80;;;;;;5073650;28;20029;-67
2021/08/22 09:16:31;;;;;;;50.90;30.05;;;20.30;65.30;;;;;;5069133;28;20021;-70
2021/08/22 09:19:23;;;;;;;44.70;25.08;;;20.30;66.00;;;;;;5069934;28;20035;-71
2021/08/22 09:22:08;;;;;;;38.03;22.35;;;20.20;66.60;;;;;;5073641;28;20017;-66
2021/08/22 09:25:18;;;;;;;46.35;26.15;;;20.20;66.10;;;;;;5071589;28;20746;-70
2021/08/22 09:28:39;;;;;;;48.90;28.33;;;20.20;65.20;;;;;;5070622;28;20030;-66
2021/08/22 09:31:31;;;;;;;35.30;22.08;;;20.20;66.60;;;;;;5050766;28;20125;-72
2021/08/22 09:34:35;;;;;;;42.47;24.33;;;20.20;65.50;;;;;;5075055;28;20111;-71
2021/08/22 09:37:12;;;;;;;39.42;20.73;;;20.20;65.40;;;;;;5075141;28;20024;-68
2021/08/22 09:40:15;;;;;;;40.50;25.23;;;20.10;64.60;;;;;;5069743;28;20028;-67
2021/08/22 09:43:01;;;;;;;48.00;26.40;;;20.10;65.30;;;;;;5074104;28;20036;-70
2021/08/22 09:46:05;;;;;;;46.97;28.00;;;20.10;66.40;;;;;;5071555;28;20098;-71
2021/08/22 09:49:09;;;;;;;40.72;24.83;;;20.10;65.50;;;;;;5067684;28;20051;-72
2021/08/22 09:52:06;;;;;;;35.22;21.10;;;20.00;67.60;;;;;;5076467;28;20020;-70
2021/08/22 09:54:55;;;;;;;39.08;21.35;;;20.10;66.00;;;;;;5074340;28;20028;-67
2021/08/22 09:58:11;;;;;;;37.53;22.95;;;20.10;66.20;;;;;;5074447;28;20020;-70
2021/08/22 10:01:12;;;;;;;48.00;26.15;;;20.10;66.50;;;;;;5059948;28;20742;-71
2021/08/22 10:04:37;;;;;;;46.60;25.83;;;20.00;67.70;;;;;;5075480;28;20054;-72
2021/08/22 10:07:35;;;;;;;41.97;23.77;;;20.00;66.60;;;;;;5073852;28;20482;-71
2021/08/22 10:10:51;;;;;;;38.47;23.33;;;20.00;67.50;;;;;;5069406;28;20037;-69
2021/08/22 10:14:07;;;;;;;34.33;21.80;;;19.90;66.80;;;;;;5067878;28;20051;-68
2021/08/22 10:16:19;;;;;;;41.92;23.35;;;20.00;67.60;;;;;;5071462;28;20041;-69
2021/08/22 10:19:22;;;;;;;37.22;23.75;;;19.90;68.00;;;;;;5065262;28;20028;-69
2021/08/22 10:22:35;;;;;;;36.42;22.30;;;19.90;68.10;;;;;;5071846;28;20039;-66
2021/08/22 10:25:32;;;;;;;32.97;18.98;;;19.90;67.20;;;;;;5074673;28;20037;-69
2021/08/22 10:28:03;;;;;;;32.08;17.88;;;19.90;67.00;;;;;;5070007;28;20632;-68
2021/08/22 10:30:41;;;;;;;30.13;17.80;;;20.00;66.70;;;;;;5073885;28;20020;-70
2021/08/22 10:33:39;;;;;;;38.92;22.05;;;20.00;65.80;;;;;;5075340;28;20024;-71
2021/08/22 10:36:36;;;;;;;30.73;18.15;;;19.90;67.50;;;;;;5072750;28;20041;-68
2021/08/22 10:39:26;;;;;;;31.85;19.65;;;20.00;67.40;;;;;;5049235;28;20036;-63
2021/08/22 10:41:58;;;;;;;32.10;19.10;;;19.90;67.40;;;;;;5074574;28;20174;-70
2021/08/22 10:44:34;;;;;;;27.33;16.10;;;19.90;66.60;;;;;;5070474;28;20016;-66
2021/08/22 10:47:12;;;;;;;32.60;19.38;;;19.90;66.50;;;;;;5073548;28;20036;-70
2021/08/22 10:49:54;;;;;;;27.38;16.85;;;19.90;66.50;;;;;;5069281;28;20096;-72
2021/08/22 10:52:23;;;;;;;;;;;20.00;66.40;;;;;;5074094;28;20024;-74
2021/08/22 10:55:30;;;;;;;33.20;18.77;;;20.00;66.20;;;;;;5054218;28;19958;-71
2021/08/22 10:57:57;;;;;;;28.45;17.08;;;20.00;66.80;;;;;;5045581;28;20039;-68
2021/08/22 11:00:46;;;;;;;28.60;16.38;;;20.00;66.50;;;;;;5048431;28;20025;-67
2021/08/22 11:03:23;;;;;;;28.27;17.05;;;19.90;67.20;;;;;;5048586;28;20487;-67
2021/08/22 11:05:50;;;;;;;23.30;14.73;;;19.90;66.90;;;;;;5048248;28;20013;-67
2021/08/22 11:08:24;;;;;;;23.58;14.32;;;19.90;66.00;;;;;;5047244;28;20361;-74
2021/08/22 11:11:05;;;;;;;25.13;15.35;;;19.90;66.40;;;;;;5048913;28;20391;-67
2021/08/22 11:13:35;;;;;;;28.45;16.88;;;19.90;66.80;;;;;;5046621;28;20411;-66
2021/08/22 11:16:07;;;;;;;26.30;15.48;;;19.90;66.90;;;;;;5046788;28;20108;-69
2021/08/22 11:18:36;;;;;;;26.48;16.08;;;19.80;66.40;;;;;;5046836;28;20503;-67
2021/08/22 11:21:04;;;;;;;23.38;13.63;;;19.90;67.00;;;;;;5047311;28;20491;-69
2021/08/22 11:23:32;;;;;;;25.17;15.10;;;19.80;66.00;;;;;;5047422;28;20402;-70
2021/08/22 11:26:10;;;;;;;22.65;13.18;;;19.80;66.20;;;;;;5046673;28;20029;-69
2021/08/22 11:28:38;;;;;;;24.25;14.63;;;19.80;66.00;;;;;;5048359;28;20025;-71
2021/08/22 11:31:15;;;;;;;22.95;13.70;;;19.80;67.20;;;;;;5047709;28;20049;-69
2021/08/22 11:33:45;;;;;;;28.67;13.85;;;19.80;66.60;;;;;;5047668;28;20045;-66
2021/08/22 11:36:12;;;;;;;19.13;12.88;;;19.80;66.30;;;;;;5048229;28;20421;-71
2021/08/22 11:38:39;;;;;;;21.88;12.75;;;19.80;66.60;;;;;;5047595;28;20036;-70
2021/08/22 11:41:10;;;;;;;21.50;13.45;;;19.80;66.60;;;;;;5047921;28;20021;-70
2021/08/22 11:43:38;;;;;;;23.40;12.88;;;19.80;66.80;;;;;;5047680;28;20463;-69
2021/08/22 11:46:14;;;;;;;21.70;14.05;;;19.80;66.90;;;;;;5047921;28;20095;-68
2021/08/22 11:48:42;;;;;;;19.52;12.77;;;19.70;67.50;;;;;;5048036;28;20017;-71
2021/08/22 11:51:09;;;;;;;20.17;13.75;;;19.70;66.80;;;;;;5047845;28;20017;-69
2021/08/22 11:53:36;;;;;;;19.80;12.85;;;19.70;66.40;;;;;;5046894;28;20079;-70
2021/08/22 11:56:04;;;;;;;21.88;12.75;;;19.70;67.30;;;;;;5047654;28;20025;-69
2021/08/22 11:58:35;;;;;;;19.10;11.65;;;19.70;67.40;;;;;;5047908;28;20078;-69
2021/08/22 12:01:18;;;;;;;22.23;13.50;;;19.70;67.70;;;;;;5047970;28;20715;-68
2021/08/22 12:04:01;;;;;;;23.73;13.13;;;19.60;68.10;;;;;;5047831;28;20431;-72
2021/08/22 12:06:32;;;;;;;23.42;12.40;;;19.70;67.10;;;;;;5046615;28;20603;-66
2021/08/22 12:09:00;;;;;;;21.33;12.85;;;19.70;67.20;;;;;;5047429;28;20041;-69
2021/08/22 12:11:33;;;;;;;19.38;12.18;;;19.70;67.50;;;;;;5048115;28;20053;-71
2021/08/22 12:14:15;;;;;;;24.10;13.02;;;19.70;66.60;;;;;;5047512;28;20044;-68
2021/08/22 12:16:54;;;;;;;;;;;19.70;67.90;;;;;;5048340;28;20029;-65
2021/08/22 12:19:25;;;;;;;18.10;10.90;;;19.70;66.80;;;;;;5047627;28;19958;-66
2021/08/22 12:21:54;;;;;;;22.02;11.38;;;19.70;67.90;;;;;;5046209;28;20369;-69
2021/08/22 12:24:23;;;;;;;16.55;9.40;;;19.60;67.60;;;;;;5046931;28;20112;-68
2021/08/22 12:26:58;;;;;;;15.90;10.35;;;19.70;67.30;;;;;;5047644;28;20033;-68
2021/08/22 12:29:36;;;;;;;15.80;10.15;;;19.60;67.50;;;;;;5047238;28;20029;-69
2021/08/22 12:32:13;;;;;;;15.63;10.10;;;19.60;67.10;;;;;;5047229;28;20077;-69
2021/08/22 12:34:40;;;;;;;18.92;10.77;;;19.60;67.30;;;;;;5046750;28;20025;-70
2021/08/22 12:37:10;;;;;;;17.98;11.05;;;19.60;67.80;;;;;;5051402;28;20070;-68
2021/08/22 12:39:38;;;;;;;15.55;10.27;;;19.60;68.60;;;;;;5050874;28;20059;-70
2021/08/22 12:42:07;;;;;;;15.75;9.70;;;19.60;67.40;;;;;;5051808;28;20040;-66
2021/08/22 12:44:38;;;;;;;19.17;9.15;;;19.60;67.80;;;;;;5050512;28;20074;-74
2021/08/22 12:47:11;;;;;;;16.48;9.68;;;19.60;67.90;;;;;;5051409;28;20395;-71
2021/08/22 12:49:39;;;;;;;13.38;9.05;;;19.60;67.80;;;;;;5051699;28;20048;-69
2021/08/22 12:52:14;;;;;;;14.00;9.52;;;19.60;67.40;;;;;;5049767;28;20041;-68
2021/08/22 12:54:42;;;;;;;13.63;9.10;;;19.50;68.10;;;;;;5081902;28;20040;-67
2021/08/22 12:57:10;;;;;;;15.13;9.43;;;19.50;67.70;;;;;;5050900;28;20018;-69
2021/08/22 12:59:43;;;;;;;13.30;9.18;;;19.50;68.50;;;;;;5050905;28;20040;-67
2021/08/22 13:02:11;;;;;;;16.23;9.05;;;19.50;68.40;;;;;;5051719;28;20104;-69
2021/08/22 13:04:38;;;;;;;15.52;9.55;;;19.40;68.40;;;;;;5050429;28;20496;-71
2021/08/22 13:07:09;;;;;;;13.18;8.82;;;19.40;69.50;;;;;;5050685;28;20427;-66